createdAt,value
2023-03-30T00:00:25.055Z,100200.39
2023-03-30T00:01:27.085Z,100198.67
2023-03-30T00:02:29.194Z,100203.89
2023-03-30T00:03:31.470Z,100202.16
2023-03-30T00:04:33.908Z,100197.81
2023-03-30T00:05:36.269Z,100202.17
2023-03-30T00:06:38.422Z,100200.42
2023-03-30T00:07:41.961Z,100204.78
2023-03-30T00:08:44.649Z,100207.41
2023-03-30T00:09:46.975Z,100200.45
2023-03-30T00:10:49.008Z,100204.80
2023-03-30T00:11:51.022Z,100201.31
2023-03-30T00:12:53.587Z,100196.95
2023-03-30T00:13:55.770Z,100198.69
2023-03-30T00:14:57.820Z,100197.84
2023-03-30T00:16:00.463Z,100199.57
2023-03-30T00:17:06.305Z,100203.05
2023-03-30T00:18:08.541Z,100199.58
2023-03-30T00:19:10.708Z,100201.39
2023-03-30T00:20:14.539Z,100206.61
2023-03-30T00:21:17.371Z,100205.73
2023-03-30T00:22:19.731Z,100206.61
2023-03-30T00:23:21.977Z,100195.31
2023-03-30T00:24:24.404Z,100198.79
2023-03-30T00:25:26.620Z,100203.14
2023-03-30T00:26:29.342Z,100204.89
2023-03-30T00:27:31.487Z,100201.42
2023-03-30T00:28:33.867Z,100209.25
2023-03-30T00:29:36.073Z,100204.91
2023-03-30T00:30:38.283Z,100201.48
2023-03-30T00:31:41.691Z,100212.80
2023-03-30T00:32:45.366Z,100195.38
2023-03-30T00:33:47.974Z,100201.48
2023-03-30T00:34:50.097Z,100193.66
2023-03-30T00:35:57.443Z,100203.23
2023-03-30T00:36:59.703Z,100203.23
2023-03-30T00:38:01.817Z,100198.02
2023-03-30T00:39:05.078Z,100196.27
2023-03-30T00:40:11.696Z,100204.13
2023-03-30T00:41:15.015Z,100204.13
2023-03-30T00:42:17.656Z,100206.73
2023-03-30T00:43:21.550Z,100205.00
2023-03-30T00:45:01.504Z,100201.52
2023-03-30T00:46:04.279Z,100206.75
2023-03-30T00:47:06.640Z,100208.48
2023-03-30T00:48:21.725Z,100212.83
2023-03-30T00:49:25.140Z,100211.09
2023-03-30T00:50:31.372Z,100207.66
2023-03-30T00:51:37.129Z,100211.09
2023-03-30T00:52:41.146Z,100205.88
2023-03-30T00:53:47.265Z,100205.88
2023-03-30T00:54:51.971Z,100200.70
2023-03-30T00:55:56.405Z,100208.54
2023-03-30T00:56:58.814Z,100213.71
2023-03-30T00:58:01.431Z,100205.92
2023-03-30T00:59:04.137Z,100211.16
2023-03-30T01:00:08.319Z,100211.15
2023-03-30T01:01:14.449Z,100213.76
2023-03-30T01:02:16.812Z,100211.15
2023-03-30T01:03:26.085Z,100208.54
2023-03-30T01:04:28.238Z,100215.49
2023-03-30T01:05:30.912Z,100215.50
2023-03-30T01:06:35.887Z,100216.36
2023-03-30T01:07:40.298Z,100220.72
2023-03-30T01:08:42.699Z,100219.84
2023-03-30T01:09:45.923Z,100222.46
2023-03-30T01:10:48.201Z,100220.73
2023-03-30T01:11:50.454Z,100221.59
2023-03-30T01:12:53.022Z,100216.37
2023-03-30T01:14:01.839Z,100221.59
2023-03-30T01:15:06.741Z,100224.20
2023-03-30T01:16:29.497Z,100224.20
2023-03-30T01:17:47.110Z,100221.59
2023-03-30T01:19:02.083Z,100223.33
2023-03-30T01:20:14.819Z,100222.46
2023-03-30T01:21:29.980Z,100220.73
2023-03-30T01:22:44.838Z,100233.77
2023-03-30T01:24:02.859Z,100225.08
2023-03-30T01:25:31.258Z,100229.44
2023-03-30T01:26:49.314Z,100230.31
2023-03-30T01:28:10.181Z,100231.18
2023-03-30T01:29:18.857Z,100225.09
2023-03-30T01:31:51.229Z,100232.03
2023-03-30T01:33:05.889Z,100242.55
2023-03-30T01:34:19.833Z,100246.89
2023-03-30T01:35:43.292Z,100238.20
2023-03-30T01:37:09.991Z,100243.42
2023-03-30T01:38:15.964Z,100248.64
2023-03-30T01:39:39.938Z,100245.16
2023-03-30T01:41:07.397Z,100255.59
2023-03-30T01:43:37.415Z,100249.45
2023-03-30T01:44:46.362Z,100253.00
2023-03-30T01:45:55.381Z,100253.87
2023-03-30T01:47:19.491Z,100246.91
2023-03-30T01:48:25.712Z,100257.34
2023-03-30T01:49:40.364Z,100253.87
2023-03-30T01:50:52.677Z,100254.75
2023-03-30T01:54:40.656Z,100257.33
2023-03-30T01:56:09.224Z,100254.80
2023-03-30T01:57:18.077Z,100263.48
2023-03-30T01:59:58.839Z,100264.29
2023-03-30T02:01:03.637Z,100273.05
2023-03-30T02:02:09.401Z,100265.22
2023-03-30T02:03:19.107Z,100266.06
2023-03-30T02:04:24.283Z,100268.70
2023-03-30T02:05:29.720Z,100266.92
2023-03-30T02:07:50.139Z,100261.69
2023-03-30T02:08:55.474Z,100261.75
2023-03-30T02:10:04.573Z,100264.36
2023-03-30T02:11:08.701Z,100266.97
2023-03-30T02:12:13.227Z,100264.31
2023-03-30T02:13:18.803Z,100267.84
2023-03-30T02:14:26.170Z,100273.88
2023-03-30T02:15:35.145Z,100279.10
2023-03-30T02:16:41.228Z,100272.18
2023-03-30T02:17:44.048Z,100280.87
2023-03-30T02:18:46.297Z,100281.75
2023-03-30T02:19:50.181Z,100286.09
2023-03-30T02:20:52.930Z,100286.97
2023-03-30T02:21:55.714Z,100290.41
2023-03-30T02:23:00.739Z,100282.62
2023-03-30T02:24:06.578Z,100287.80
2023-03-30T02:25:09.571Z,100283.45
2023-03-30T02:26:13.570Z,100288.66
2023-03-30T02:27:16.729Z,100286.92
2023-03-30T02:28:18.973Z,100283.45
2023-03-30T02:29:21.893Z,100282.58
2023-03-30T02:30:24.221Z,100290.41
2023-03-30T02:31:26.408Z,100290.41
2023-03-30T02:32:35.150Z,100293.92
2023-03-30T02:33:53.114Z,100286.09
2023-03-30T02:35:11.497Z,100300.88
2023-03-30T02:36:45.155Z,100292.19
2023-03-30T02:38:08.295Z,100293.92
2023-03-30T02:39:14.727Z,100298.27
2023-03-30T02:40:32.865Z,100283.49
2023-03-30T02:41:41.763Z,100287.84
2023-03-30T02:44:20.782Z,100281.70
2023-03-30T02:45:26.711Z,100283.50
2023-03-30T02:46:33.165Z,100281.77
2023-03-30T02:47:56.171Z,100284.37
2023-03-30T02:49:14.480Z,100285.23
2023-03-30T02:51:52.823Z,100282.61
2023-03-30T02:53:00.506Z,100293.97
2023-03-30T02:55:23.199Z,100286.09
2023-03-30T02:56:41.351Z,100291.36
2023-03-30T02:57:59.402Z,100293.97
2023-03-30T02:59:24.213Z,100296.58
2023-03-30T03:00:30.673Z,100300.92
2023-03-30T03:02:51.649Z,100307.84
2023-03-30T03:03:58.155Z,100308.75
2023-03-30T03:05:01.349Z,100309.62
2023-03-30T03:06:06.533Z,100313.10
2023-03-30T03:07:12.136Z,100307.89
2023-03-30T03:08:18.477Z,100313.10
2023-03-30T03:09:22.292Z,100313.97
2023-03-30T03:10:25.142Z,100315.71
2023-03-30T03:11:27.521Z,100320.92
2023-03-30T03:12:29.692Z,100320.05
2023-03-30T03:13:32.073Z,100315.71
2023-03-30T03:14:35.932Z,100331.36
2023-03-30T03:15:38.277Z,100329.62
2023-03-30T03:16:42.784Z,100331.36
2023-03-30T03:17:46.812Z,100333.97
2023-03-30T03:18:50.309Z,100328.75
2023-03-30T03:19:53.328Z,100330.48
2023-03-30T03:20:56.295Z,100333.09
2023-03-30T03:21:58.838Z,100337.45
2023-03-30T03:23:01.334Z,100328.75
2023-03-30T03:24:04.860Z,100339.18
2023-03-30T03:26:18.231Z,100332.23
2023-03-30T03:27:20.723Z,100330.48
2023-03-30T03:28:30.663Z,100333.09
2023-03-30T03:29:34.839Z,100332.23
2023-03-30T03:30:37.172Z,100335.70
2023-03-30T03:31:44.424Z,100340.05
2023-03-30T03:32:46.639Z,100337.45
2023-03-30T03:33:48.887Z,100341.79
2023-03-30T03:34:55.799Z,100333.97
2023-03-30T03:35:59.899Z,100340.92
2023-03-30T03:37:02.510Z,100347.88
2023-03-30T03:38:06.860Z,100338.31
2023-03-30T03:39:09.623Z,100343.53
2023-03-30T03:40:14.193Z,100340.92
2023-03-30T03:41:16.510Z,100343.53
2023-03-30T03:42:19.379Z,100343.53
2023-03-30T03:43:26.414Z,100348.74
2023-03-30T03:44:28.741Z,100346.14
2023-03-30T03:45:32.086Z,100344.40
2023-03-30T03:46:35.705Z,100345.27
2023-03-30T03:47:38.009Z,100341.79
2023-03-30T03:48:40.042Z,100339.18
2023-03-30T03:49:42.544Z,100341.79
2023-03-30T03:50:47.101Z,100340.05
2023-03-30T03:51:50.474Z,100337.45
2023-03-30T03:52:53.226Z,100337.45
2023-03-30T03:53:55.375Z,100347.00
2023-03-30T03:54:57.491Z,100346.14
2023-03-30T03:56:00.146Z,100349.61
2023-03-30T03:57:02.675Z,100342.66
2023-03-30T03:58:05.704Z,100344.42
2023-03-30T03:59:08.094Z,100353.13
2023-03-30T04:00:11.602Z,100352.22
2023-03-30T04:01:14.623Z,100346.17
2023-03-30T04:02:17.390Z,100338.34
2023-03-30T04:03:19.731Z,100342.66
2023-03-30T04:04:22.499Z,100347.03
2023-03-30T04:05:25.565Z,100353.13
2023-03-30T04:06:27.887Z,100341.79
2023-03-30T04:07:30.098Z,100340.95
2023-03-30T04:08:32.662Z,100341.79
2023-03-30T04:09:42.398Z,100345.27
2023-03-30T04:10:52.388Z,100347.91
2023-03-30T04:11:56.465Z,100345.30
2023-03-30T04:14:18.674Z,100349.61
2023-03-30T04:15:25.739Z,100347.88
2023-03-30T04:16:44.777Z,100348.74
2023-03-30T04:17:49.137Z,100349.61
2023-03-30T04:18:56.074Z,100353.95
2023-03-30T04:20:09.312Z,100353.09
2023-03-30T04:21:19.134Z,100345.27
2023-03-30T04:22:29.227Z,100353.09
2023-03-30T04:23:37.137Z,100351.34
2023-03-30T04:26:01.337Z,100347.01
2023-03-30T04:27:14.476Z,100355.70
2023-03-30T04:28:28.754Z,100348.78
2023-03-30T04:30:59.337Z,100351.35
2023-03-30T04:32:19.931Z,100360.05
2023-03-30T04:33:24.835Z,100361.78
2023-03-30T04:34:46.863Z,100357.44
2023-03-30T04:35:56.103Z,100360.05
2023-03-30T04:38:14.764Z,100370.45
2023-03-30T04:39:22.305Z,100360.91
2023-03-30T04:40:27.546Z,100367.87
2023-03-30T04:42:59.813Z,100362.63
2023-03-30T04:44:22.638Z,100365.23
2023-03-30T04:45:49.036Z,100360.88
2023-03-30T04:46:53.122Z,100359.14
2023-03-30T04:48:14.404Z,100360.02
2023-03-30T04:50:30.185Z,100361.72
2023-03-30T04:51:51.146Z,100368.70
2023-03-30T04:54:10.810Z,100363.45
2023-03-30T04:55:17.960Z,100361.75
2023-03-30T04:57:37.230Z,100356.48
2023-03-30T04:58:44.185Z,100369.58
2023-03-30T05:00:00.810Z,100373.02
2023-03-30T05:01:12.123Z,100368.67
2023-03-30T05:02:33.077Z,100373.02
2023-03-30T05:05:02.618Z,100367.75
2023-03-30T05:06:08.070Z,100373.02
2023-03-30T05:07:29.348Z,100367.80
2023-03-30T05:08:41.734Z,100376.45
2023-03-30T05:10:02.733Z,100370.36
2023-03-30T05:11:09.771Z,100379.06
2023-03-30T05:12:22.839Z,100378.19
2023-03-30T05:13:30.096Z,100375.58
2023-03-30T05:14:51.088Z,100370.36
2023-03-30T05:16:05.141Z,100379.92
2023-03-30T05:17:12.906Z,100383.41
2023-03-30T05:18:32.354Z,100383.41
2023-03-30T05:20:51.043Z,100380.73
2023-03-30T05:22:14.731Z,100377.31
2023-03-30T05:23:22.388Z,100375.54
2023-03-30T05:24:26.494Z,100375.53
2023-03-30T05:25:30.561Z,100379.02
2023-03-30T05:27:46.899Z,100364.16
2023-03-30T05:28:57.016Z,100379.01
2023-03-30T05:30:13.633Z,100382.48
2023-03-30T05:31:18.331Z,100375.52
2023-03-30T05:32:31.287Z,100368.55
2023-03-30T05:33:44.662Z,100372.91
2023-03-30T05:34:55.041Z,100372.86
2023-03-30T05:36:09.739Z,100368.55
2023-03-30T05:37:14.298Z,100368.52
2023-03-30T05:38:20.521Z,100372.86
2023-03-30T05:39:24.656Z,100369.37
2023-03-30T05:40:29.594Z,100365.89
2023-03-30T05:42:57.892Z,100364.94
2023-03-30T05:45:17.848Z,100366.63
2023-03-30T05:47:30.769Z,100364.88
2023-03-30T05:48:40.918Z,100367.56
2023-03-30T05:49:55.181Z,100366.69
2023-03-30T05:51:02.649Z,100371.90
2023-03-30T05:52:09.890Z,100373.63
2023-03-30T05:53:30.998Z,100373.59
2023-03-30T05:54:34.888Z,100377.06
2023-03-30T05:55:55.638Z,100375.32
2023-03-30T05:58:15.506Z,100372.61
2023-03-30T05:59:22.175Z,100368.33
2023-03-30T06:00:29.567Z,100374.42
2023-03-30T06:01:33.796Z,100377.86
2023-03-30T06:02:36.128Z,100373.50
2023-03-30T06:03:40.496Z,100380.45
2023-03-30T06:04:44.646Z,100376.09
2023-03-30T06:05:47.625Z,100376.95
2023-03-30T06:06:49.684Z,100379.55
2023-03-30T06:07:51.982Z,100376.08
2023-03-30T06:08:55.240Z,100377.77
2023-03-30T06:09:59.261Z,100382.99
2023-03-30T06:11:04.522Z,100376.88
2023-03-30T06:12:08.866Z,100380.36
2023-03-30T06:13:11.480Z,100373.38
2023-03-30T06:14:21.805Z,100375.98
2023-03-30T06:15:32.213Z,100369.83
2023-03-30T06:16:39.090Z,100383.75
2023-03-30T06:17:42.087Z,100379.37
2023-03-30T06:18:44.371Z,100377.63
2023-03-30T06:19:48.522Z,100380.23
2023-03-30T06:20:51.408Z,100380.22
2023-03-30T06:21:54.071Z,100373.19
2023-03-30T06:23:05.077Z,100379.28
2023-03-30T06:24:07.385Z,100382.75
2023-03-30T06:25:10.609Z,100384.48
2023-03-30T06:26:15.587Z,100375.75
2023-03-30T06:27:18.157Z,100380.94
2023-03-30T06:28:21.602Z,100378.30
2023-03-30T06:29:23.795Z,100373.93
2023-03-30T06:30:26.145Z,100379.13
2023-03-30T06:31:30.217Z,100380.86
2023-03-30T06:33:43.087Z,100378.11
2023-03-30T06:34:45.701Z,100378.17
2023-03-30T06:35:50.391Z,100372.05
2023-03-30T06:36:54.077Z,100378.14
2023-03-30T06:37:59.125Z,100372.88
2023-03-30T06:39:04.010Z,100373.73
2023-03-30T06:40:08.258Z,100374.56
2023-03-30T06:41:10.667Z,100386.77
2023-03-30T06:42:14.684Z,100377.16
2023-03-30T06:44:33.786Z,100375.28
2023-03-30T06:45:38.074Z,100378.88
2023-03-30T06:46:41.116Z,100379.73
2023-03-30T06:47:44.787Z,100377.10
2023-03-30T06:48:48.556Z,100383.14
2023-03-30T06:50:09.913Z,100379.65
2023-03-30T06:51:14.965Z,100366.55
2023-03-30T06:52:19.077Z,100367.42
2023-03-30T06:53:23.327Z,100370.89
2023-03-30T06:54:26.325Z,100376.13
2023-03-30T06:55:30.292Z,100374.36
2023-03-30T06:56:32.607Z,100373.48
2023-03-30T06:57:37.790Z,100371.72
2023-03-30T06:58:40.180Z,100373.45
2023-03-30T06:59:42.237Z,100371.66
2023-03-30T07:00:55.323Z,100376.88
2023-03-30T07:03:25.788Z,100378.43
2023-03-30T07:04:31.680Z,100371.56
2023-03-30T07:05:48.664Z,100364.52
2023-03-30T07:07:01.475Z,100367.98
2023-03-30T07:08:06.951Z,100371.45
2023-03-30T07:09:09.961Z,100376.68
2023-03-30T07:10:13.211Z,100377.53
2023-03-30T07:11:15.510Z,100377.52
2023-03-30T07:12:18.925Z,100374.00
2023-03-30T07:13:21.803Z,100372.20
2023-03-30T07:14:24.736Z,100370.44
2023-03-30T07:15:27.524Z,100381.77
2023-03-30T07:16:29.729Z,100373.02
2023-03-30T07:17:32.426Z,100374.75
2023-03-30T07:18:34.801Z,100371.27
2023-03-30T07:19:38.104Z,100369.53
2023-03-30T07:20:40.403Z,100363.41
2023-03-30T07:21:53.348Z,100371.27
2023-03-30T07:22:57.533Z,100365.14
2023-03-30T07:24:00.615Z,100366.88
2023-03-30T07:25:05.658Z,100360.77
2023-03-30T07:26:09.576Z,100363.38
2023-03-30T07:27:29.005Z,100366.84
2023-03-30T07:28:32.720Z,100365.96
2023-03-30T07:29:35.592Z,100366.78
2023-03-30T07:30:37.952Z,100370.25
2023-03-30T07:31:41.900Z,100364.12
2023-03-30T07:32:45.563Z,100366.72
2023-03-30T07:33:49.544Z,100357.94
2023-03-30T07:34:53.364Z,100356.98
2023-03-30T07:35:56.071Z,100364.81
2023-03-30T07:36:59.159Z,100362.16
2023-03-30T07:38:03.981Z,100353.42
2023-03-30T07:39:11.362Z,100349.88
2023-03-30T07:40:16.892Z,100352.43
2023-03-30T07:41:19.245Z,100351.52
2023-03-30T07:42:24.503Z,100347.96
2023-03-30T07:43:27.176Z,100348.73
2023-03-30T07:44:31.552Z,100352.21
2023-03-30T07:45:35.709Z,100353.05
2023-03-30T07:46:38.271Z,100352.11
2023-03-30T07:47:41.785Z,100345.08
2023-03-30T07:48:45.174Z,100349.36
2023-03-30T07:49:47.340Z,100349.30
2023-03-30T07:50:49.538Z,100355.37
2023-03-30T07:51:53.312Z,100356.17
2023-03-30T07:52:57.378Z,100351.75
2023-03-30T07:54:00.191Z,100351.73
2023-03-30T07:56:16.708Z,100354.98
2023-03-30T07:57:21.404Z,100350.76
2023-03-30T07:58:23.991Z,100345.41
2023-03-30T07:59:26.275Z,100348.00
2023-03-30T08:00:30.282Z,100346.17
2023-03-30T08:01:37.505Z,100346.13
2023-03-30T08:02:44.178Z,100350.45
2023-03-30T08:03:48.598Z,100343.42
2023-03-30T08:04:51.948Z,100341.65
2023-03-30T08:05:58.898Z,100339.84
2023-03-30T08:07:03.225Z,100351.16
2023-03-30T08:08:05.813Z,100338.02
2023-03-30T08:09:09.753Z,100337.96
2023-03-30T08:10:13.096Z,100337.91
2023-03-30T08:11:15.208Z,100332.64
2023-03-30T08:12:17.552Z,100330.86
2023-03-30T08:13:22.059Z,100332.57
2023-03-30T08:14:25.878Z,100324.65
2023-03-30T08:15:27.985Z,100315.88
2023-03-30T08:16:31.265Z,100321.94
2023-03-30T08:17:33.496Z,100319.27
2023-03-30T08:18:35.975Z,100311.36
2023-03-30T08:19:38.112Z,100308.66
2023-03-30T08:20:41.976Z,100315.59
2023-03-30T08:21:44.129Z,100305.01
2023-03-30T08:22:47.419Z,100300.59
2023-03-30T08:23:49.411Z,100301.44
2023-03-30T08:24:51.418Z,100308.39
2023-03-30T08:25:59.226Z,100297.86
2023-03-30T08:27:02.613Z,100295.21
2023-03-30T08:28:04.927Z,100300.46
2023-03-30T08:29:09.423Z,100289.94
2023-03-30T08:30:13.082Z,100288.17
2023-03-30T08:31:15.321Z,100295.06
2023-03-30T08:32:18.384Z,100286.30
2023-03-30T08:33:21.124Z,100287.16
2023-03-30T08:34:23.886Z,100292.39
2023-03-30T08:35:26.237Z,100295.88
2023-03-30T08:36:28.703Z,100291.44
2023-03-30T08:37:31.424Z,100293.08
2023-03-30T08:38:33.504Z,100301.77
2023-03-30T08:39:35.510Z,100292.97
2023-03-30T08:40:42.806Z,100296.46
2023-03-30T08:42:04.288Z,100294.70
2023-03-30T08:43:21.568Z,100296.44
2023-03-30T08:44:42.289Z,100304.28
2023-03-30T08:45:44.820Z,100298.88
2023-03-30T08:46:48.460Z,100303.16
2023-03-30T08:47:52.212Z,100297.81
2023-03-30T08:48:57.733Z,100291.57
2023-03-30T08:51:38.969Z,100300.69
2023-03-30T08:52:42.323Z,100305.20
2023-03-30T08:53:44.821Z,100287.64
2023-03-30T08:54:47.010Z,100300.69
2023-03-30T08:56:07.650Z,100296.17
2023-03-30T08:57:13.892Z,100290.85
2023-03-30T08:58:41.645Z,100290.75
2023-03-30T08:59:53.722Z,100285.43
2023-03-30T09:01:18.179Z,100285.27
2023-03-30T09:02:30.428Z,100288.73
2023-03-30T09:04:06.646Z,100285.17
2023-03-30T09:05:21.491Z,100291.26
2023-03-30T09:06:35.914Z,100286.86
2023-03-30T09:07:59.919Z,100285.13
2023-03-30T09:09:02.136Z,100288.66
2023-03-30T09:11:32.249Z,100277.84
2023-03-30T09:12:44.453Z,100280.77
2023-03-30T09:13:49.637Z,100285.06
2023-03-30T09:15:11.950Z,100283.23
2023-03-30T09:16:24.480Z,100284.97
2023-03-30T09:17:39.418Z,100282.23
2023-03-30T09:18:44.313Z,100282.16
2023-03-30T09:20:13.502Z,100278.64
2023-03-30T09:21:17.788Z,100275.97
2023-03-30T09:22:20.718Z,100281.06
2023-03-30T09:23:23.270Z,100272.27
2023-03-30T09:24:26.477Z,100273.92
2023-03-30T09:25:49.273Z,100284.28
2023-03-30T09:27:02.190Z,100279.88
2023-03-30T09:28:14.203Z,100270.22
2023-03-30T09:29:34.699Z,100268.41
2023-03-30T09:30:40.527Z,100259.62
2023-03-30T09:31:52.383Z,100258.68
2023-03-30T09:33:01.138Z,100259.40
2023-03-30T09:34:08.676Z,100256.58
2023-03-30T09:35:20.277Z,100270.47
2023-03-30T09:36:33.033Z,100259.78
2023-03-30T09:37:36.911Z,100250.08
2023-03-30T09:38:39.971Z,100258.77
2023-03-30T09:39:41.966Z,100258.66
2023-03-30T09:41:03.351Z,100247.11
2023-03-30T09:42:18.404Z,100253.16
2023-03-30T09:43:42.217Z,100251.39
2023-03-30T09:46:07.347Z,100239.88
2023-03-30T09:47:19.954Z,100251.73
2023-03-30T09:48:23.714Z,100250.00
2023-03-30T09:49:31.545Z,100242.93
2023-03-30T09:50:43.773Z,100232.36
2023-03-30T09:52:01.961Z,100227.88
2023-03-30T09:53:19.778Z,100227.91
2023-03-30T09:54:22.491Z,100232.20
2023-03-30T09:55:34.970Z,100217.16
2023-03-30T09:57:52.874Z,100215.64
2023-03-30T09:58:55.520Z,100231.69
2023-03-30T09:59:59.886Z,100224.61
2023-03-30T10:02:24.916Z,100225.03
2023-03-30T10:03:28.139Z,100225.31
2023-03-30T10:04:30.447Z,100229.72
2023-03-30T10:05:36.210Z,100227.88
2023-03-30T10:06:47.073Z,100219.06
2023-03-30T10:07:55.206Z,100224.25
2023-03-30T10:08:57.867Z,100227.71
2023-03-30T10:10:03.422Z,100228.49
2023-03-30T10:11:05.647Z,100220.55
2023-03-30T10:12:11.365Z,100217.86
2023-03-30T10:13:17.445Z,100221.25
2023-03-30T10:14:29.952Z,100214.12
2023-03-30T10:15:34.468Z,100222.77
2023-03-30T10:16:37.616Z,100214.69
2023-03-30T10:17:40.752Z,100212.70
2023-03-30T10:18:46.761Z,100217.84
2023-03-30T10:21:07.967Z,100212.05
2023-03-30T10:22:16.432Z,100212.31
2023-03-30T10:23:20.534Z,100209.58
2023-03-30T10:24:28.367Z,100215.71
2023-03-30T10:25:33.953Z,100213.94
2023-03-30T10:26:37.385Z,100219.31
2023-03-30T10:27:41.884Z,100207.13
2023-03-30T10:29:02.602Z,100204.53
2023-03-30T10:30:11.458Z,100202.67
2023-03-30T10:31:15.930Z,100203.41
2023-03-30T10:32:21.025Z,100204.25
2023-03-30T10:33:24.069Z,100209.27
2023-03-30T10:34:36.871Z,100200.36
2023-03-30T10:35:39.833Z,100204.67
2023-03-30T10:36:42.416Z,100208.91
2023-03-30T10:37:46.290Z,100209.73
2023-03-30T10:38:49.236Z,100208.95
2023-03-30T10:39:52.953Z,100206.49
2023-03-30T10:40:58.857Z,100210.04
2023-03-30T10:42:04.003Z,100212.68
2023-03-30T10:43:09.743Z,100215.09
2023-03-30T10:45:50.830Z,100208.45
2023-03-30T10:48:42.391Z,100206.98
2023-03-30T10:50:09.448Z,100205.58
2023-03-30T10:52:58.394Z,100205.55
2023-03-30T10:54:34.144Z,100207.56
2023-03-30T10:55:49.491Z,100209.20
2023-03-30T10:56:54.742Z,100212.61
2023-03-30T10:58:21.676Z,100207.23
2023-03-30T10:59:33.705Z,100198.45
2023-03-30T11:01:02.158Z,100193.07
2023-03-30T11:02:26.876Z,100194.80
2023-03-30T11:03:30.558Z,100202.59
2023-03-30T11:04:44.952Z,100199.95
2023-03-30T11:05:51.703Z,100196.34
2023-03-30T11:06:57.308Z,100200.66
2023-03-30T11:08:05.806Z,100188.27
2023-03-30T11:09:11.682Z,100192.69
2023-03-30T11:10:18.910Z,100193.45
2023-03-30T11:11:25.347Z,100186.39
2023-03-30T11:12:31.087Z,100185.39
2023-03-30T11:13:48.928Z,100187.20
2023-03-30T11:14:54.700Z,100194.13
2023-03-30T11:16:03.855Z,100179.19
2023-03-30T11:17:11.032Z,100187.11
2023-03-30T11:18:23.544Z,100185.23
2023-03-30T11:19:34.829Z,100175.69
2023-03-30T11:20:43.306Z,100182.88
2023-03-30T11:21:54.784Z,100190.09
2023-03-30T11:23:13.064Z,100182.27
2023-03-30T11:24:21.217Z,100178.82
2023-03-30T11:25:26.970Z,100177.91
2023-03-30T11:26:35.942Z,100181.46
2023-03-30T11:27:42.137Z,100178.04
2023-03-30T11:29:10.728Z,100183.23
2023-03-30T11:30:20.307Z,100179.73
2023-03-30T11:33:11.326Z,100172.08
2023-03-30T11:34:17.272Z,100178.66
2023-03-30T11:35:38.213Z,100167.30
2023-03-30T11:36:56.358Z,100169.88
2023-03-30T11:38:18.852Z,100165.41
2023-03-30T11:39:31.616Z,100171.35
2023-03-30T11:40:35.953Z,100166.80
2023-03-30T11:43:01.161Z,100164.41
2023-03-30T11:44:04.262Z,100157.86
2023-03-30T11:46:57.592Z,100149.20
2023-03-30T11:49:39.337Z,100156.83
2023-03-30T11:52:15.445Z,100163.95
2023-03-30T11:53:39.496Z,100155.80
2023-03-30T11:55:03.000Z,100164.34
2023-03-30T11:57:23.929Z,100160.84
2023-03-30T11:58:42.704Z,100151.66
2023-03-30T11:59:54.520Z,100155.02
2023-03-30T12:02:47.931Z,100152.42
2023-03-30T12:05:14.656Z,100154.69
2023-03-30T12:06:32.166Z,100153.39
2023-03-30T12:07:50.300Z,100156.78
2023-03-30T12:11:47.262Z,100155.26
2023-03-30T12:12:50.173Z,100152.96
2023-03-30T12:13:54.088Z,100150.14
2023-03-30T12:15:21.524Z,100143.07
2023-03-30T12:17:50.785Z,100147.20
2023-03-30T12:19:10.490Z,100149.55
2023-03-30T12:20:38.326Z,100147.82
2023-03-30T12:21:44.097Z,100145.89
2023-03-30T12:23:01.939Z,100151.12
2023-03-30T12:24:20.281Z,100146.69
2023-03-30T12:25:32.320Z,100147.33
2023-03-30T12:26:35.295Z,100147.33
2023-03-30T12:27:41.054Z,100146.25
2023-03-30T12:29:06.603Z,100152.28
2023-03-30T12:31:00.164Z,100137.39
2023-03-30T12:32:05.572Z,100147.05
2023-03-30T12:33:17.087Z,100139.13
2023-03-30T12:34:21.782Z,100141.59
2023-03-30T12:35:50.745Z,100141.53
2023-03-30T12:36:57.020Z,100142.52
2023-03-30T12:38:00.093Z,100143.48
2023-03-30T12:39:04.613Z,100143.61
2023-03-30T12:40:20.784Z,100138.31
2023-03-30T12:41:26.181Z,100141.77
2023-03-30T12:42:31.211Z,100146.02
2023-03-30T12:43:54.002Z,100148.55
2023-03-30T12:45:15.631Z,100130.83
2023-03-30T12:46:42.489Z,100140.34
2023-03-30T12:48:00.299Z,100141.02
2023-03-30T12:49:31.380Z,100130.31
2023-03-30T12:50:51.955Z,100136.34
2023-03-30T12:52:15.992Z,100132.84
2023-03-30T12:53:40.638Z,100137.12
2023-03-30T12:54:59.240Z,100129.98
2023-03-30T12:57:40.368Z,100129.45
2023-03-30T12:59:18.738Z,100122.25
2023-03-30T13:00:37.277Z,100121.33
2023-03-30T13:01:48.847Z,100126.87
2023-03-30T13:03:20.716Z,100125.27
2023-03-30T13:04:26.071Z,100124.46
2023-03-30T13:05:31.978Z,100126.87
2023-03-30T13:07:46.030Z,100122.37
2023-03-30T13:08:51.942Z,100117.48
2023-03-30T13:11:20.185Z,100113.88
2023-03-30T13:12:26.629Z,100121.45
2023-03-30T13:13:53.634Z,100115.97
2023-03-30T13:15:05.815Z,100124.78
2023-03-30T13:16:10.306Z,100120.28
2023-03-30T13:17:17.875Z,100111.31
2023-03-30T13:18:33.515Z,100116.62
2023-03-30T13:19:39.280Z,100113.88
2023-03-30T13:20:56.889Z,100111.45
2023-03-30T13:23:27.199Z,100105.61
2023-03-30T13:24:54.404Z,100117.54
2023-03-30T13:26:06.466Z,100112.88
2023-03-30T13:27:21.638Z,100115.41
2023-03-30T13:28:56.638Z,100103.76
2023-03-30T13:30:05.232Z,100106.28
2023-03-30T13:31:27.872Z,100111.58
2023-03-30T13:32:48.820Z,100105.48
2023-03-30T13:35:23.677Z,100104.52
2023-03-30T13:36:29.649Z,100095.33
2023-03-30T13:37:41.916Z,100104.20
2023-03-30T13:39:13.236Z,100105.36
2023-03-30T13:40:41.515Z,100109.79
2023-03-30T13:42:02.141Z,100102.70
2023-03-30T13:43:14.204Z,100098.27
2023-03-30T13:44:26.518Z,100108.93
2023-03-30T13:45:45.038Z,100096.67
2023-03-30T13:46:50.985Z,100090.23
2023-03-30T13:48:12.033Z,100091.09
2023-03-30T13:49:17.999Z,100092.69
2023-03-30T13:50:25.600Z,100091.69
2023-03-30T13:51:29.221Z,100088.12
2023-03-30T13:53:50.185Z,100083.63
2023-03-30T13:54:52.590Z,100091.20
2023-03-30T13:55:56.172Z,100085.84
2023-03-30T13:57:10.834Z,100091.07
2023-03-30T13:58:22.749Z,100091.40
2023-03-30T13:59:28.519Z,100084.48
2023-03-30T14:00:41.556Z,100086.27
2023-03-30T14:01:56.257Z,100085.47
2023-03-30T14:03:01.319Z,100082.02
2023-03-30T14:04:04.257Z,100083.75
2023-03-30T14:05:21.718Z,100084.48
2023-03-30T14:06:26.795Z,100085.05
2023-03-30T14:07:28.872Z,100082.27
2023-03-30T14:08:34.673Z,100080.34
2023-03-30T14:09:37.426Z,100077.63
2023-03-30T14:10:39.823Z,100080.21
2023-03-30T14:12:57.030Z,100074.11
2023-03-30T14:14:02.480Z,100073.62
2023-03-30T14:16:29.626Z,100070.26
2023-03-30T14:17:32.204Z,100074.55
2023-03-30T14:18:35.428Z,100070.38